Time;durP1;ratioP1;P1;durP2;ratioP2;P2;SDS_P1;SDS_P2;PMS_P1;PMS_P2;Temp;Humidity;BMP_temperature;BMP_pressure;BME280_temperature;BME280_humidity;BME280_pressure;Samples;Min_cycle;Max_cycle;Signal;HPM_P1;HPM_P2
2020/12/07 00:00:20;;;;;;;22.97;13.30;;;;;;;5.54;97.41;99454.38;5007692;28;20060;-68
2020/12/07 00:02:47;;;;;;;20.93;14.10;;;;;;;5.46;97.72;99458.91;5008367;28;20065;-68
2020/12/07 00:05:13;;;;;;;22.70;13.80;;;;;;;5.56;98.35;99458.72;5006942;28;20041;-68
2020/12/07 00:07:39;;;;;;;21.80;13.63;;;;;;;5.60;97.50;99464.75;5007446;28;20052;-68
2020/12/07 00:10:07;;;;;;;20.73;12.90;;;;;;;5.60;97.09;99464.75;5007814;28;20505;-68
2020/12/07 00:12:33;;;;;;;24.03;13.50;;;;;;;5.60;97.26;99463.00;5008013;28;20088;-68
2020/12/07 00:15:00;;;;;;;22.47;13.20;;;;;;;5.67;96.01;99455.03;5023885;28;20407;-68
2020/12/07 00:17:27;;;;;;;23.10;14.00;;;;;;;5.53;97.08;99448.28;5006759;28;20092;-68
2020/12/07 00:19:53;;;;;;;20.30;12.93;;;;;;;5.42;97.04;99447.63;5008446;28;20046;-68
2020/12/07 00:22:27;;;;;;;23.17;12.83;;;;;;;5.48;97.35;99462.38;4992364;28;20042;-68
2020/12/07 00:24:54;;;;;;;21.42;13.25;;;;;;;5.41;97.13;99459.00;5009807;28;20042;-68
2020/12/07 00:27:26;;;;;;;22.03;12.90;;;;;;;5.45;98.13;99463.28;5009921;28;20535;-68
2020/12/07 00:29:52;;;;;;;20.33;12.83;;;;;;;5.37;97.04;99462.56;4992379;28;20046;-68
2020/12/07 00:32:19;;;;;;;22.33;14.40;;;;;;;5.32;97.78;99462.66;5007328;28;20038;-68
2020/12/07 00:34:46;;;;;;;24.33;12.93;;;;;;;5.33;97.26;99455.66;5009496;28;20046;-68
2020/12/07 00:37:12;;;;;;;20.23;12.73;;;;;;;5.33;97.13;99463.53;5009978;28;20399;-68
2020/12/07 00:39:38;;;;;;;21.43;13.57;;;;;;;5.41;96.62;99459.00;5008676;28;20499;-68
2020/12/07 00:42:05;;;;;;;21.53;14.80;;;;;;;5.43;96.72;99457.22;5008887;28;20045;-68
2020/12/07 00:44:33;;;;;;;20.57;12.30;;;;;;;5.30;96.47;99461.84;4991602;28;20050;-68
2020/12/07 00:47:00;;;;;;;23.13;13.60;;;;;;;5.45;96.45;99467.66;4975337;28;20038;-68
2020/12/07 00:49:26;;;;;;;23.27;14.20;;;;;;;5.54;95.96;99463.09;5007316;28;20045;-68
2020/12/07 00:51:52;;;;;;;18.43;12.77;;;;;;;5.49;95.23;99451.88;5007908;28;20108;-68
2020/12/07 00:54:18;;;;;;;21.53;13.03;;;;;;;5.48;95.65;99452.75;5010585;28;20088;-68
2020/12/07 00:56:44;;;;;;;23.57;14.60;;;;;;;5.54;94.97;99449.16;5009075;28;20618;-68
2020/12/07 00:59:11;;;;;;;19.40;12.43;;;;;;;5.62;94.30;99453.34;5009068;28;20045;-68
2020/12/07 01:01:38;;;;;;;25.33;13.70;;;;;;;5.60;93.85;99449.91;5008173;28;20107;-68
2020/12/07 01:04:04;;;;;;;22.33;14.33;;;;;;;5.48;94.08;99447.53;5007620;28;20077;-68
2020/12/07 01:06:31;;;;;;;22.20;14.40;;;;;;;5.61;93.73;99438.50;5007759;28;20038;-68
2020/12/07 01:08:58;;;;;;;21.43;13.60;;;;;;;5.75;92.77;99422.53;5007644;28;20073;-68
2020/12/07 01:11:24;;;;;;;22.50;12.33;;;;;;;5.71;92.92;99433.09;5007589;28;20044;-68
2020/12/07 01:13:50;;;;;;;28.77;14.83;;;;;;;5.72;92.35;99424.31;4985262;28;20038;-68
2020/12/07 01:16:23;;;;;;;21.93;13.30;;;;;;;5.73;92.52;99431.31;4975746;28;20315;-68
2020/12/07 01:18:50;;;;;;;21.70;13.57;;;;;;;5.71;91.99;99433.09;4990478;28;20054;-68
2020/12/07 01:21:17;;;;;;;24.03;14.10;;;;;;;5.71;92.42;99414.75;5007762;28;20037;-68
2020/12/07 01:23:44;;;;;;;24.87;14.43;;;;;;;5.58;92.83;99407.16;4991576;28;20084;-68
2020/12/07 01:26:12;;;;;;;23.80;14.17;;;;;;;5.57;92.75;99408.06;4991265;28;20534;-68
2020/12/07 01:28:38;;;;;;;20.53;13.70;;;;;;;5.59;92.21;99431.59;5007805;28;20061;-68
2020/12/07 01:31:07;;;;;;;20.97;13.73;;;;;;;5.63;91.90;99399.19;5008256;28;20336;-68
2020/12/07 01:33:33;;;;;;;23.90;14.03;;;;;;;5.57;91.61;99415.91;5008444;28;20077;-68
2020/12/07 01:36:00;;;;;;;21.83;13.67;;;;;;;5.46;92.43;99410.00;5008181;28;20038;-68
2020/12/07 01:38:26;;;;;;;21.13;13.63;;;;;;;5.56;91.84;99414.19;4990192;28;20038;-68
2020/12/07 01:40:52;;;;;;;19.87;12.60;;;;;;;5.45;92.40;99403.03;5006513;28;20057;-68
2020/12/07 01:43:19;;;;;;;20.77;12.53;;;;;;;5.43;92.36;99401.34;5006394;28;20034;-68
2020/12/07 01:45:45;;;;;;;19.90;12.70;;;;;;;5.42;92.33;99424.06;4992323;28;20634;-68
2020/12/07 01:48:13;;;;;;;19.83;13.30;;;;;;;5.36;92.81;99404.09;5010287;28;20112;-68
2020/12/07 01:50:42;;;;;;;19.43;12.97;;;;;;;5.24;93.33;99406.09;5006808;28;20683;-68
2020/12/07 01:53:09;;;;;;;18.90;11.50;;;;;;;5.04;93.57;99399.47;5009667;28;20449;-68
2020/12/07 01:55:37;;;;;;;20.43;12.63;;;;;;;5.04;94.60;99394.25;5007269;28;21729;-68
2020/12/07 01:58:03;;;;;;;22.80;12.70;;;;;;;5.03;94.58;99389.88;5007801;28;20099;-68
2020/12/07 02:00:30;;;;;;;23.17;14.30;;;;;;;5.02;94.56;99403.84;5002651;28;20034;-68
2020/12/07 02:02:56;;;;;;;22.50;14.60;;;;;;;4.96;93.93;99380.44;5002939;28;20578;-68
2020/12/07 02:05:23;;;;;;;23.10;13.87;;;;;;;4.96;94.68;99392.63;5008933;28;20053;-68
2020/12/07 02:07:50;;;;;;;26.37;14.77;;;;;;;4.85;95.10;99384.09;5007917;28;20037;-68
2020/12/07 02:10:16;;;;;;;21.90;14.07;;;;;;;4.79;95.49;99385.06;5007707;28;20046;-68
2020/12/07 02:12:43;;;;;;;26.63;13.83;;;;;;;4.76;95.59;99377.28;5008885;28;20041;-68
2020/12/07 02:15:09;;;;;;;21.13;13.63;;;;;;;4.67;95.65;99374.84;5013038;28;20053;-68
2020/12/07 02:17:35;;;;;;;22.33;13.63;;;;;;;4.62;96.31;99372.28;5011562;28;20042;-68
2020/12/07 02:20:01;;;;;;;21.83;13.80;;;;;;;4.66;95.88;99380.97;5012435;28;20042;-68
2020/12/07 02:22:27;;;;;;;23.87;13.40;;;;;;;4.71;95.73;99368.69;5011959;28;20046;-68
2020/12/07 02:24:54;;;;;;;23.57;13.50;;;;;;;4.70;95.52;99375.63;5012118;28;20077;-68
2020/12/07 02:27:20;;;;;;;22.50;13.77;;;;;;;4.76;95.18;99374.66;5027839;28;20046;-68
2020/12/07 02:29:46;;;;;;;24.83;15.20;;;;;;;4.69;94.95;99381.75;5012003;28;20072;-68
2020/12/07 02:32:14;;;;;;;23.00;13.10;;;;;;;4.66;95.31;99380.97;5012423;28;20037;-68
2020/12/07 02:34:41;;;;;;;23.33;15.33;;;;;;;4.63;95.86;99383.63;5011863;28;20042;-68
2020/12/07 02:37:07;;;;;;;22.47;13.83;;;;;;;4.66;94.91;99380.97;5011624;28;20042;-68
2020/12/07 02:39:34;;;;;;;26.20;14.57;;;;;;;4.64;95.33;99380.13;5012163;28;20069;-68
2020/12/07 02:42:04;;;;;;;23.93;14.63;;;;;;;4.58;96.04;99370.63;4979664;28;20415;-68
2020/12/07 02:44:31;;;;;;;23.63;15.17;;;;;;;4.62;95.59;99377.50;4990410;28;20080;-68
2020/12/07 02:46:58;;;;;;;24.27;14.40;;;;;;;4.60;95.42;99371.44;5012802;28;20042;-68
2020/12/07 02:49:25;;;;;;;23.80;14.20;;;;;;;4.68;94.80;99360.84;5010773;28;20088;-68
2020/12/07 02:51:51;;;;;;;24.47;13.47;;;;;;;4.62;94.64;99364.44;5011507;28;20507;-68
2020/12/07 02:54:17;;;;;;;23.83;15.33;;;;;;;4.69;94.86;99352.13;5012319;28;20049;-68
2020/12/07 02:56:43;;;;;;;21.97;14.17;;;;;;;4.73;94.07;99349.44;5005741;28;20043;-68
2020/12/07 02:59:10;;;;;;;24.63;14.33;;;;;;;4.74;93.87;99347.69;5010604;28;20092;-68
2020/12/07 03:01:36;;;;;;;24.20;15.00;;;;;;;4.65;94.41;99346.09;5026028;22;20034;-70
2020/12/07 03:04:02;;;;;;;25.00;15.27;;;;;;;4.61;94.34;99354.00;5013595;28;20041;-70
2020/12/07 03:06:28;;;;;;;24.43;15.90;;;;;;;4.63;94.51;99345.25;5025013;28;20633;-69
2020/12/07 03:08:55;;;;;;;23.93;14.17;;;;;;;4.58;94.71;99327.91;5016584;28;20610;-70
2020/12/07 03:11:22;;;;;;;25.23;15.27;;;;;;;4.52;95.38;99314.03;5023060;28;20049;-70
2020/12/07 03:13:48;;;;;;;26.00;14.60;;;;;;;4.55;94.72;99322.75;5011088;28;20057;-70
2020/12/07 03:16:15;;;;;;;23.63;14.10;;;;;;;4.57;94.50;99327.06;4997202;28;20513;-69
2020/12/07 03:18:41;;;;;;;23.07;14.30;;;;;;;4.58;94.47;99327.91;4995483;28;20042;-70
2020/12/07 03:21:07;;;;;;;20.30;13.57;;;;;;;4.58;94.47;99333.13;5011004;28;20124;-70
2020/12/07 03:23:33;;;;;;;24.40;14.00;;;;;;;4.56;94.32;99333.19;4993555;28;20081;-70
2020/12/07 03:25:59;;;;;;;25.57;14.17;;;;;;;4.53;94.32;99318.38;5003585;28;20173;-69
2020/12/07 03:28:25;;;;;;;26.13;15.27;;;;;;;4.59;94.46;99319.16;5001548;28;20088;-70
2020/12/07 03:30:51;;;;;;;23.33;14.27;;;;;;;4.58;94.15;99322.69;5002069;28;20046;-70
2020/12/07 03:33:18;;;;;;;22.77;14.30;;;;;;;4.66;93.59;99326.03;4999722;28;20103;-70
2020/12/07 03:35:44;;;;;;;24.60;15.77;;;;;;;4.67;93.48;99325.13;4998748;28;20058;-70
2020/12/07 03:38:10;;;;;;;25.27;13.30;;;;;;;4.66;93.67;99326.88;5005830;28;20071;-71
2020/12/07 03:40:36;;;;;;;25.10;14.63;;;;;;;4.67;93.64;99317.28;5009389;28;20092;-70
2020/12/07 03:43:02;;;;;;;21.33;12.97;;;;;;;4.66;93.59;99310.31;5014391;28;20064;-70
2020/12/07 03:45:28;;;;;;;22.50;13.83;;;;;;;4.73;93.30;99314.56;5017132;28;20045;-71
2020/12/07 03:47:55;;;;;;;23.57;14.97;;;;;;;4.71;93.26;99317.22;5010704;28;20045;-70
2020/12/07 03:50:21;;;;;;;23.87;14.40;;;;;;;4.73;92.82;99317.19;5009282;28;20049;-70
2020/12/07 03:52:47;;;;;;;24.97;14.17;;;;;;;4.74;92.47;99314.53;5012017;28;20092;-70
2020/12/07 03:55:13;;;;;;;22.43;13.60;;;;;;;4.67;92.71;99318.13;5009900;28;20100;-70
2020/12/07 03:57:39;;;;;;;26.53;14.30;;;;;;;4.66;92.86;99318.19;5030067;28;20083;-70
2020/12/07 04:00:06;;;;;;;26.37;14.40;;;;;;;4.69;92.21;99315.50;5008502;28;20049;-70
2020/12/07 04:02:33;;;;;;;25.17;14.07;;;;;;;4.63;92.32;99323.47;4984635;28;20034;-70
2020/12/07 04:05:10;;;;;;;20.47;13.90;;;;;;;4.67;92.03;99327.75;4998841;28;20034;-70
2020/12/07 04:07:36;;;;;;;22.97;15.00;;;;;;;4.64;92.33;99323.44;5021583;28;20045;-70
2020/12/07 04:10:03;;;;;;;22.20;13.23;;;;;;;4.65;91.83;99313.84;4999418;28;20045;-70
2020/12/07 04:12:29;;;;;;;22.27;13.27;;;;;;;4.63;92.23;99313.00;5006901;28;20041;-70
2020/12/07 04:14:55;;;;;;;21.33;13.67;;;;;;;4.61;92.44;99327.84;5008599;28;20049;-70
2020/12/07 04:17:21;;;;;;;21.17;13.50;;;;;;;4.63;91.83;99334.81;5010991;28;20502;-70
2020/12/07 04:19:47;;;;;;;20.10;12.53;;;;;;;4.61;91.97;99336.56;5019786;28;20050;-70
2020/12/07 04:22:14;;;;;;;21.77;13.47;;;;;;;4.63;91.88;99332.19;5016615;28;20037;-70
2020/12/07 04:24:40;;;;;;;25.57;13.70;;;;;;;4.60;92.46;99329.59;5009816;28;20408;-70
2020/12/07 04:27:06;;;;;;;20.83;12.87;;;;;;;4.63;92.08;99340.03;5009101;28;20038;-70
2020/12/07 04:29:32;;;;;;;22.60;13.43;;;;;;;4.76;90.81;99332.81;5010383;28;20458;-70
2020/12/07 04:31:59;;;;;;;22.50;14.07;;;;;;;4.86;90.23;99347.44;5011830;28;20049;-71
2020/12/07 04:34:25;;;;;;;24.83;13.53;;;;;;;4.84;89.71;99314.34;5013423;28;20046;-70
2020/12/07 04:36:55;;;;;;;24.70;13.20;;;;;;;4.84;89.27;99320.44;5009595;28;20037;-70
2020/12/07 04:39:21;;;;;;;21.13;13.33;;;;;;;4.90;88.19;99337.81;5021415;28;20046;-70
2020/12/07 04:41:47;;;;;;;22.70;13.87;;;;;;;4.90;88.87;99325.56;5000543;28;20062;-71
2020/12/07 04:44:14;;;;;;;20.53;12.13;;;;;;;4.87;88.85;99325.63;5019753;28;20041;-70
2020/12/07 04:46:41;;;;;;;22.27;14.40;;;;;;;4.86;88.65;99334.34;5010537;28;20049;-70
2020/12/07 04:49:07;;;;;;;21.93;13.23;;;;;;;4.91;88.20;99322.06;5007884;28;20101;-70
2020/12/07 04:51:33;;;;;;;21.27;13.00;;;;;;;4.90;87.05;99335.19;5010790;28;20049;-70
2020/12/07 04:54:01;;;;;;;20.40;13.13;;;;;;;4.84;87.67;99325.69;5007418;28;20087;-71
2020/12/07 04:56:27;;;;;;;19.93;12.90;;;;;;;4.85;87.59;99326.53;4998308;28;20038;-70
2020/12/07 04:58:55;;;;;;;21.10;13.47;;;;;;;4.88;86.70;99329.97;5006189;28;20034;-70
2020/12/07 05:01:22;;;;;;;25.53;14.63;;;;;;;4.87;87.06;99324.75;5017180;28;20103;-70
2020/12/07 05:03:48;;;;;;;20.47;13.37;;;;;;;4.93;86.80;99325.50;5012688;28;20065;-70
2020/12/07 05:06:18;;;;;;;21.73;12.83;;;;;;;4.89;86.35;99323.84;5006087;28;20046;-70
2020/12/07 05:08:44;;;;;;;22.53;13.50;;;;;;;4.87;86.94;99315.16;4997391;28;20166;-70
2020/12/07 05:11:10;;;;;;;19.97;12.50;;;;;;;4.78;87.19;99317.94;4982824;28;20046;-71
2020/12/07 05:16:03;;;;;;;23.37;13.50;;;;;;;4.78;86.50;99320.56;5011511;28;20087;-70
2020/12/07 05:18:34;;;;;;;22.60;13.93;;;;;;;4.81;86.26;99312.66;5016703;28;20046;-70
2020/12/07 05:21:00;;;;;;;23.50;13.17;;;;;;;4.78;86.36;99300.47;5003745;28;20116;-70
2020/12/07 05:23:26;;;;;;;20.40;12.83;;;;;;;4.80;86.44;99327.50;5010190;28;20033;-70
2020/12/07 05:25:52;;;;;;;18.80;13.00;;;;;;;4.82;86.40;99334.47;5018125;28;20037;-70
2020/12/07 05:28:28;;;;;;;21.97;13.13;;;;;;;4.76;86.86;99307.50;4999239;28;20038;-70
2020/12/07 05:30:58;;;;;;;22.03;13.00;;;;;;;4.74;86.15;99317.16;5007313;28;20048;-70
2020/12/07 05:33:24;;;;;;;21.13;13.53;;;;;;;4.76;86.33;99331.06;5005008;28;20037;-70
2020/12/07 05:35:53;;;;;;;21.80;13.17;;;;;;;4.71;87.05;99324.19;5008949;28;20050;-70
2020/12/07 05:38:19;;;;;;;22.70;13.37;;;;;;;4.72;86.55;99333.78;5008592;28;20069;-70
2020/12/07 05:40:46;;;;;;;19.70;12.90;;;;;;;4.66;86.97;99326.88;5007600;28;20046;-70
2020/12/07 05:43:12;;;;;;;19.60;11.37;;;;;;;4.72;86.94;99318.06;5021065;28;20638;-70
2020/12/07 05:45:42;;;;;;;19.70;12.40;;;;;;;4.62;87.39;99322.56;5012622;28;20041;-70
2020/12/07 05:48:10;;;;;;;20.20;12.93;;;;;;;4.74;86.75;99334.59;5011337;28;20037;-70
2020/12/07 05:50:42;;;;;;;17.97;12.30;;;;;;;4.68;86.28;99332.94;5004812;28;20038;-70
2020/12/07 05:53:08;;;;;;;21.50;13.37;;;;;;;4.62;86.76;99340.88;5019062;28;20036;-71
2020/12/07 05:55:34;;;;;;;20.67;12.33;;;;;;;4.56;87.82;99343.63;5022542;28;20061;-71
2020/12/07 05:58:04;;;;;;;22.80;13.47;;;;;;;4.54;87.01;99337.56;4990904;28;20065;-70
2020/12/07 06:00:35;;;;;;;20.17;11.83;;;;;;;4.52;88.00;99355.03;5005776;28;20038;-71
2020/12/07 06:03:04;;;;;;;19.37;12.80;;;;;;;4.47;87.37;99364.72;5017427;28;20044;-70
2020/12/07 06:05:31;;;;;;;21.43;12.83;;;;;;;4.42;87.86;99362.16;5006325;28;20450;-70
2020/12/07 06:08:31;;;;;;;18.77;12.23;;;;;;;4.43;87.89;99368.25;5014774;28;20041;-70
2020/12/07 06:11:04;;;;;;;20.83;12.67;;;;;;;4.43;88.09;99381.31;5002474;28;20057;-70
2020/12/07 06:13:30;;;;;;;22.77;13.37;;;;;;;4.40;87.54;99371.78;5007253;28;20038;-70
2020/12/07 06:15:57;;;;;;;20.30;11.90;;;;;;;4.38;88.54;99383.19;5021900;28;20458;-71
2020/12/07 06:18:31;;;;;;;23.43;13.57;;;;;;;4.39;88.92;99377.06;5017738;28;20049;-70
2020/12/07 06:21:00;;;;;;;;;;;;;;;4.35;88.59;99381.44;5017283;28;20069;-70
2020/12/07 06:23:37;;;;;;;23.07;13.37;;;;;;;4.36;89.19;99380.56;5008058;28;19937;-70
2020/12/07 06:26:06;;;;;;;20.93;13.27;;;;;;;4.23;89.61;99381.66;5021449;28;20038;-70
2020/12/07 06:28:34;;;;;;;21.10;13.13;;;;;;;4.17;89.67;99377.38;5017543;28;20069;-70
2020/12/07 06:31:13;;;;;;;22.10;12.87;;;;;;;4.15;90.43;99380.91;4993230;28;20451;-70
2020/12/07 06:33:47;;;;;;;24.67;14.10;;;;;;;4.16;89.99;99391.34;5008060;28;20040;-70
2020/12/07 06:36:31;;;;;;;23.80;14.13;;;;;;;4.10;90.15;99387.94;4997766;28;20108;-70
2020/12/07 06:39:11;;;;;;;21.73;12.10;;;;;;;4.11;90.30;99400.13;4984927;28;20050;-70
2020/12/07 06:41:47;;;;;;;21.53;12.73;;;;;;;4.03;90.96;99397.59;4994940;28;20068;-70
2020/12/07 06:44:14;;;;;;;21.37;13.03;;;;;;;4.08;89.79;99410.63;5027378;28;20553;-70
2020/12/07 06:50:01;;;;;;;19.27;12.57;;;;;;;4.13;90.00;99424.50;4997372;28;20045;-70
2020/12/07 06:52:25;;;;;;;20.60;13.23;;;;;;;4.15;89.47;99430.56;5011855;28;20034;-70
2020/12/07 06:55:13;;;;;;;19.33;12.50;;;;;;;4.20;88.89;99427.00;5011002;28;20073;-70
2020/12/07 06:57:53;;;;;;;25.17;13.60;;;;;;;4.20;89.26;99419.16;5010689;28;20041;-70
2020/12/07 07:00:20;;;;;;;21.57;12.80;;;;;;;4.16;89.25;99419.22;5010905;28;20076;-70
2020/12/07 07:02:56;;;;;;;21.80;12.53;;;;;;;4.13;89.37;99425.38;5005356;28;20065;-70
2020/12/07 07:05:24;;;;;;;21.60;13.13;;;;;;;4.10;88.95;99424.53;5019838;28;20050;-70
2020/12/07 07:07:52;;;;;;;21.30;13.37;;;;;;;4.13;89.16;99430.59;5023104;28;20442;-70
2020/12/07 07:10:18;;;;;;;22.67;13.90;;;;;;;4.12;89.11;99441.03;5009992;28;20045;-70
2020/12/07 07:12:45;;;;;;;23.73;13.83;;;;;;;4.10;89.90;99445.44;5029395;28;20502;-70
2020/12/07 07:15:12;;;;;;;21.10;13.67;;;;;;;4.15;89.24;99433.19;5031441;28;20045;-69
2020/12/07 07:17:40;;;;;;;21.30;13.20;;;;;;;4.11;89.26;99434.09;5013151;28;20108;-70
2020/12/07 07:20:08;;;;;;;20.37;12.83;;;;;;;4.12;89.48;99431.47;5009417;28;20046;-70
2020/12/07 07:22:37;;;;;;;23.33;13.80;;;;;;;4.10;89.47;99430.63;5013066;28;20042;-70
2020/12/07 07:30:27;;;;;;;20.73;13.43;;;;;;;4.09;89.72;99447.19;5029613;28;20048;-70
2020/12/07 07:32:55;;;;;;;22.47;12.93;;;;;;;4.03;90.53;99449.88;5022920;28;20068;-70
2020/12/07 07:35:23;;;;;;;20.67;12.33;;;;;;;4.02;90.75;99448.16;5018940;28;20041;-70
2020/12/07 07:37:49;;;;;;;19.83;12.87;;;;;;;4.01;90.81;99446.44;5013794;28;20092;-70
2020/12/07 07:40:20;;;;;;;21.30;13.17;;;;;;;4.05;91.05;99442.03;5018283;28;20111;-70
2020/12/07 07:42:50;;;;;;;24.87;13.57;;;;;;;4.00;91.48;99443.84;5009278;28;20049;-69
2020/12/07 07:45:18;;;;;;;20.47;13.23;;;;;;;3.97;91.75;99446.50;5010732;28;20049;-70
2020/12/07 07:47:52;;;;;;;20.40;13.40;;;;;;;3.95;92.25;99446.50;5010765;28;20041;-70
2020/12/07 07:50:40;;;;;;;23.55;15.57;;;;;;;3.91;93.02;99455.28;5009060;28;20053;-71
2020/12/07 07:53:43;;;;;;;24.97;14.17;;;;;;;3.88;94.44;99434.41;5009669;28;20034;-70
2020/12/07 07:59:57;;;;;;;22.88;13.20;;;;;;;3.80;95.87;99449.34;5010745;28;20092;-70
2020/12/07 08:16:14;;;;;;;24.43;14.83;;;;;;;3.58;99.75;99453.94;5009580;28;20104;-70
2020/12/07 08:18:42;;;;;;;29.27;16.07;;;;;;;3.52;100.00;99452.25;5008647;28;20096;-70
2020/12/07 08:21:09;;;;;;;30.60;17.53;;;;;;;3.54;100.00;99455.72;5007812;28;20088;-69
2020/12/07 08:23:36;;;;;;;26.40;15.60;;;;;;;3.52;100.00;99467.06;5008333;28;20042;-71
2020/12/07 08:26:03;;;;;;;29.80;17.63;;;;;;;3.48;100.00;99455.78;5008624;28;20038;-69
2020/12/07 08:28:37;;;;;;;30.67;16.63;;;;;;;3.46;100.00;99459.31;5009474;28;20095;-69
2020/12/07 08:31:13;;;;;;;28.35;18.17;;;;;;;3.47;100.00;99454.06;5007792;28;20046;-70
2020/12/07 08:33:53;;;;;;;29.43;17.00;;;;;;;3.46;100.00;99464.53;5007905;28;20038;-69
2020/12/07 08:36:19;;;;;;;29.93;16.83;;;;;;;3.45;100.00;99449.72;4991958;28;20045;-70
2020/12/07 08:38:46;;;;;;;28.13;16.70;;;;;;;3.51;100.00;99449.66;5008129;28;20092;-70
2020/12/07 08:41:17;;;;;;;27.73;16.40;;;;;;;3.55;100.00;99464.44;4991455;28;20073;-70
2020/12/07 08:43:46;;;;;;;30.53;17.33;;;;;;;3.58;100.00;99454.81;5008044;28;20588;-70
2020/12/07 08:46:15;;;;;;;28.73;16.27;;;;;;;3.62;100.00;99451.28;5008129;28;20383;-70
2020/12/07 08:48:41;;;;;;;26.83;16.50;;;;;;;3.65;99.66;99455.59;5008198;28;20046;-70
2020/12/07 08:51:08;;;;;;;28.30;17.73;;;;;;;3.73;99.83;99461.59;5007755;28;20045;-70
2020/12/07 08:53:38;;;;;;;29.90;15.37;;;;;;;3.74;99.07;99452.00;5008261;28;20057;-69
2020/12/07 08:56:06;;;;;;;29.73;16.53;;;;;;;3.88;97.12;99450.97;5007734;28;20041;-70
2020/12/07 08:58:33;;;;;;;23.67;15.20;;;;;;;3.86;97.78;99471.00;5007727;28;20065;-70
2020/12/07 09:01:04;;;;;;;25.47;16.10;;;;;;;3.84;97.67;99458.84;5007060;28;20111;-70
2020/12/07 09:03:31;;;;;;;27.83;16.80;;;;;;;3.87;97.10;99464.91;5007816;28;20129;-69
2020/12/07 09:05:57;;;;;;;26.73;15.67;;;;;;;3.88;96.55;99469.25;5035245;22;20095;-70
2020/12/07 09:08:23;;;;;;;25.63;14.87;;;;;;;3.88;96.27;99471.88;5000979;28;20045;-69
2020/12/07 09:10:49;;;;;;;23.37;15.10;;;;;;;3.87;96.70;99462.31;5007887;28;20052;-70
2020/12/07 09:13:19;;;;;;;22.57;14.03;;;;;;;3.97;95.05;99464.78;5028542;28;20037;-69
2020/12/07 09:15:45;;;;;;;22.13;14.63;;;;;;;3.97;94.86;99475.25;5010914;28;20037;-69
2020/12/07 09:18:11;;;;;;;27.03;15.60;;;;;;;3.94;95.27;99489.19;5010925;28;20045;-69
2020/12/07 09:20:37;;;;;;;26.07;15.17;;;;;;;3.92;95.45;99486.59;5028009;28;20049;-69
2020/12/07 09:23:03;;;;;;;24.33;14.63;;;;;;;3.95;95.14;99493.53;5028109;28;20100;-69
2020/12/07 09:25:30;;;;;;;24.37;15.20;;;;;;;4.02;94.81;99483.88;5028975;28;20510;-68
2020/12/07 09:27:56;;;;;;;24.10;15.30;;;;;;;4.08;94.38;99470.72;5011898;28;20041;-68
2020/12/07 09:30:22;;;;;;;25.40;15.30;;;;;;;4.22;93.18;99471.44;5029123;28;20743;-69
2020/12/07 09:32:48;;;;;;;26.80;14.53;;;;;;;4.36;92.64;99472.06;5029496;28;20037;-68
2020/12/07 09:35:15;;;;;;;24.20;15.53;;;;;;;4.40;92.23;99471.16;5011201;28;20438;-68
2020/12/07 09:37:41;;;;;;;22.57;14.17;;;;;;;4.58;90.51;99475.25;5028059;28;20053;-68
2020/12/07 09:40:10;;;;;;;21.43;14.00;;;;;;;4.68;90.50;99470.72;5010324;28;20437;-68
2020/12/07 09:42:38;;;;;;;24.43;14.50;;;;;;;4.74;90.62;99470.66;5010753;28;20095;-68
2020/12/07 09:45:05;;;;;;;26.30;14.03;;;;;;;4.68;89.63;99470.72;5010446;28;20433;-68
2020/12/07 09:47:31;;;;;;;22.47;14.13;;;;;;;4.71;90.56;99470.72;5027780;28;20045;-68
2020/12/07 09:49:57;;;;;;;23.40;13.70;;;;;;;4.75;89.74;99480.22;5009842;28;20045;-68
2020/12/07 09:52:23;;;;;;;20.53;14.23;;;;;;;4.71;89.85;99482.03;5027893;28;20042;-68
2020/12/07 09:54:50;;;;;;;23.10;14.87;;;;;;;4.74;89.61;99473.25;5027550;28;20044;-68
2020/12/07 09:57:16;;;;;;;22.80;14.87;;;;;;;4.67;89.83;99475.09;5027755;28;20091;-68
2020/12/07 09:59:45;;;;;;;22.90;15.47;;;;;;;4.62;89.76;99486.50;4993501;28;20048;-68
2020/12/07 10:02:11;;;;;;;22.17;13.93;;;;;;;4.61;91.10;99480.41;5027293;28;20045;-68
2020/12/07 10:04:37;;;;;;;26.23;14.93;;;;;;;4.61;89.93;99483.03;5009812;28;20441;-69
2020/12/07 10:07:03;;;;;;;25.80;16.07;;;;;;;4.59;89.84;99492.66;5022821;28;20548;-68
2020/12/07 10:09:29;;;;;;;24.43;14.37;;;;;;;4.61;89.40;99490.88;5027238;28;20182;-68
2020/12/07 10:11:56;;;;;;;22.73;13.27;;;;;;;4.62;90.04;99484.75;5027271;28;20041;-68
2020/12/07 10:14:22;;;;;;;23.57;15.93;;;;;;;4.64;89.22;99485.63;5027584;28;20087;-68
2020/12/07 10:16:52;;;;;;;23.87;15.63;;;;;;;4.52;90.57;99496.25;5009714;28;20144;-68
2020/12/07 10:19:18;;;;;;;21.80;14.70;;;;;;;4.55;90.71;99484.91;5009915;28;20398;-68
2020/12/07 10:21:44;;;;;;;22.60;13.77;;;;;;;4.51;90.53;99490.16;5009322;28;20064;-68
2020/12/07 10:24:11;;;;;;;25.33;16.07;;;;;;;4.61;90.04;99483.03;5027119;28;20049;-68
2020/12/07 10:26:40;;;;;;;22.17;13.77;;;;;;;4.71;89.61;99483.78;5010575;28;20502;-68
2020/12/07 10:29:06;;;;;;;23.27;15.53;;;;;;;4.70;90.32;99479.41;5027312;28;20091;-68
2020/12/07 10:31:42;;;;;;;22.63;15.67;;;;;;;4.65;89.30;99483.88;5027070;28;20045;-68
2020/12/07 10:34:08;;;;;;;22.70;13.97;;;;;;;4.73;89.42;99488.09;4994322;28;20041;-68
2020/12/07 10:36:34;;;;;;;24.93;14.90;;;;;;;4.62;89.81;99471.69;5020669;28;20033;-68
2020/12/07 10:39:00;;;;;;;21.90;13.80;;;;;;;4.67;90.43;99469.00;4997318;28;20092;-68
2020/12/07 10:41:27;;;;;;;21.63;13.83;;;;;;;4.78;89.96;99473.16;5030783;28;20041;-68
2020/12/07 10:43:53;;;;;;;22.13;13.83;;;;;;;4.82;89.92;99471.38;5013736;28;20045;-68
2020/12/07 10:46:20;;;;;;;22.23;13.83;;;;;;;4.85;89.27;99484.41;5031365;28;20049;-68
2020/12/07 10:48:46;;;;;;;20.90;13.53;;;;;;;4.88;89.27;99481.75;5031294;28;20449;-67
2020/12/07 10:51:13;;;;;;;23.53;14.20;;;;;;;4.97;89.09;99470.28;5030926;28;20049;-68
2020/12/07 10:53:39;;;;;;;24.87;14.83;;;;;;;5.01;88.35;99480.66;4997329;28;20072;-68
2020/12/07 10:56:07;;;;;;;20.67;13.37;;;;;;;5.05;88.20;99482.34;5013380;28;20493;-68
2020/12/07 10:58:34;;;;;;;18.60;13.30;;;;;;;5.08;88.25;99490.13;5013299;28;20517;-68
2020/12/07 11:01:00;;;;;;;21.10;13.10;;;;;;;5.07;87.56;99484.94;5030126;28;20041;-68
2020/12/07 11:03:27;;;;;;;21.87;15.27;;;;;;;4.97;88.32;99486.84;5030610;28;20034;-68
2020/12/07 11:05:56;;;;;;;21.13;13.33;;;;;;;4.90;89.42;99500.91;5013009;28;20064;-68
2020/12/07 11:08:33;;;;;;;22.27;13.53;;;;;;;4.79;89.38;99502.81;5030722;28;20080;-68
2020/12/07 11:11:00;;;;;;;22.60;14.10;;;;;;;4.84;88.99;99501.00;5030068;28;20575;-68
2020/12/07 11:13:30;;;;;;;22.50;14.10;;;;;;;4.83;88.77;99509.75;4996757;28;20049;-67
2020/12/07 11:16:01;;;;;;;20.80;12.93;;;;;;;4.72;89.85;99507.31;5030271;28;20029;-68
2020/12/07 11:18:29;;;;;;;21.67;13.47;;;;;;;4.71;89.92;99496.88;5013295;28;20124;-68
2020/12/07 11:20:55;;;;;;;23.10;14.63;;;;;;;4.72;90.21;99504.69;5012567;28;20119;-68
2020/12/07 11:23:22;;;;;;;21.53;14.33;;;;;;;4.69;90.43;99499.47;5013152;28;20498;-68
2020/12/07 11:25:48;;;;;;;20.73;13.70;;;;;;;4.75;89.14;99495.91;4997002;28;20061;-68
2020/12/07 11:28:14;;;;;;;23.37;13.77;;;;;;;4.68;89.47;99509.97;5013136;28;20048;-68
2020/12/07 11:30:40;;;;;;;21.50;13.83;;;;;;;4.66;90.58;99514.38;5030366;28;20483;-68
2020/12/07 11:33:06;;;;;;;22.60;13.87;;;;;;;4.62;90.87;99502.22;5030826;28;20038;-68
2020/12/07 11:35:33;;;;;;;21.40;14.27;;;;;;;4.63;90.30;99509.19;5023834;28;20514;-68
2020/12/07 11:38:11;;;;;;;21.63;13.40;;;;;;;4.68;90.29;99523.06;5010109;28;20056;-68
2020/12/07 11:40:50;;;;;;;23.53;14.47;;;;;;;4.66;90.53;99522.22;5030118;28;20111;-68
2020/12/07 11:46:02;;;;;;;21.20;13.23;;;;;;;4.58;91.06;99518.84;5029989;28;20045;-68
2020/12/07 11:48:28;;;;;;;21.80;14.40;;;;;;;4.58;91.02;99516.25;5028986;28;20514;-68
2020/12/07 11:50:54;;;;;;;22.83;14.40;;;;;;;4.56;90.27;99513.66;5029601;28;20079;-68
2020/12/07 11:53:21;;;;;;;22.13;13.77;;;;;;;4.60;90.40;99519.69;4996133;28;20041;-68
2020/12/07 11:55:47;;;;;;;23.53;13.40;;;;;;;4.54;90.49;99515.44;5029298;28;20040;-67
2020/12/07 11:58:13;;;;;;;22.77;13.77;;;;;;;4.58;90.94;99513.63;5012259;28;20127;-68